Time;durP1;ratioP1;P1;durP2;ratioP2;P2;SDS_P1;SDS_P2;PMS_P1;PMS_P2;Temp;Humidity;BMP_temperature;BMP_pressure;BME280_temperature;BME280_humidity;BME280_pressure;Samples;Min_cycle;Max_cycle;Signal;HPM_P1;HPM_P2
2023/11/01 00:00:27;;;;;;;5.75;2.83;;;16.20;70.50;17.90;100187.00;;;;5011771;28;20192;-78
2023/11/01 00:02:54;;;;;;;5.18;2.72;;;16.20;71.20;17.80;100184.00;;;;5011308;28;20200;-79
2023/11/01 00:05:21;;;;;;;8.88;2.78;;;16.20;70.50;17.80;100174.00;;;;5005880;28;20571;-78
2023/11/01 00:07:48;;;;;;;4.65;3.00;;;16.10;70.40;17.80;100180.00;;;;5005693;28;20245;-78
2023/11/01 00:10:15;;;;;;;6.72;3.05;;;16.20;70.50;17.80;100181.00;;;;5013414;28;20766;-78
2023/11/01 00:12:42;;;;;;;3.80;2.40;;;16.10;70.40;17.80;100171.00;;;;5015330;28;20201;-78
2023/11/01 00:15:11;;;;;;;6.20;3.28;;;16.10;70.50;17.80;100168.00;;;;5012372;28;20203;-78
2023/11/01 00:17:38;;;;;;;5.35;2.40;;;16.20;70.60;17.80;100161.00;;;;5014182;28;20646;-78
2023/11/01 00:20:07;;;;;;;4.28;2.78;;;16.10;71.30;17.80;100154.00;;;;5013608;28;20220;-78
2023/11/01 00:22:34;;;;;;;4.10;2.70;;;16.10;70.50;17.80;100154.00;;;;5013465;28;20545;-78
2023/11/01 00:25:01;;;;;;;4.10;2.70;;;16.10;70.60;17.80;100150.00;;;;5015425;28;20287;-79
2023/11/01 00:27:30;;;;;;;7.72;2.38;;;16.10;70.60;17.80;100146.00;;;;5015666;28;20527;-78
2023/11/01 00:29:58;;;;;;;4.97;2.95;;;16.10;70.50;17.80;100143.00;;;;5015366;28;20662;-78
2023/11/01 00:32:26;;;;;;;4.50;2.40;;;16.10;70.50;17.80;100143.00;;;;5015644;28;20220;-77
2023/11/01 00:34:53;;;;;;;3.78;2.40;;;16.10;70.50;17.80;100151.00;;;;5014968;28;20193;-77
2023/11/01 00:37:21;;;;;;;5.10;2.40;;;16.10;70.50;17.80;100149.00;;;;5008108;28;20185;-77
2023/11/01 00:39:48;;;;;;;5.28;2.03;;;16.10;70.60;17.80;100134.00;;;;4996983;28;21050;-77
2023/11/01 00:42:15;;;;;;;5.57;2.53;;;16.10;70.50;17.80;100133.00;;;;5012154;28;20189;-78
2023/11/01 00:44:42;;;;;;;5.68;2.10;;;16.10;70.50;17.80;100137.00;;;;5013703;28;20201;-78
2023/11/01 00:47:09;;;;;;;6.50;2.20;;;16.10;70.60;17.80;100127.00;;;;5015155;28;20676;-78
2023/11/01 00:49:37;;;;;;;5.72;2.13;;;16.10;70.60;17.80;100120.00;;;;5015280;28;20738;-78
2023/11/01 00:52:05;;;;;;;3.47;2.03;;;16.10;70.60;17.80;100127.00;;;;5006547;28;20197;-78
2023/11/01 00:54:32;;;;;;;5.07;2.50;;;16.10;70.60;17.80;100124.00;;;;4995475;28;20204;-78
2023/11/01 00:56:59;;;;;;;3.90;2.70;;;16.10;70.60;17.80;100118.00;;;;5000408;28;20547;-78
2023/11/01 00:59:26;;;;;;;4.60;2.60;;;16.10;70.60;17.80;100106.00;;;;5014780;28;20201;-77
2023/11/01 01:01:53;;;;;;;4.38;2.65;;;16.10;70.70;17.80;100101.00;;;;5015172;28;20545;-78
2023/11/01 01:04:20;;;;;;;7.45;2.67;;;16.10;70.70;17.80;100111.00;;;;5014807;28;20203;-78
2023/11/01 01:06:48;;;;;;;5.03;2.53;;;16.10;70.70;17.80;100111.00;;;;5012665;28;20275;-77
2023/11/01 01:09:15;;;;;;;4.32;2.67;;;16.10;70.80;17.80;100110.00;;;;5013743;28;20221;-78
2023/11/01 01:11:43;;;;;;;5.53;3.03;;;16.10;70.70;17.80;100096.00;;;;5014445;28;20208;-78
2023/11/01 01:14:10;;;;;;;3.80;2.45;;;16.10;70.70;17.80;100103.00;;;;5014006;28;20216;-78
2023/11/01 01:16:37;;;;;;;8.20;3.10;;;16.10;70.80;17.80;100092.00;;;;5014650;28;20658;-78
2023/11/01 01:19:04;;;;;;;4.63;2.58;;;16.10;70.80;17.80;100104.00;;;;5014954;28;20201;-78
2023/11/01 01:21:31;;;;;;;4.00;2.60;;;16.10;70.70;17.80;100095.00;;;;5014874;28;20287;-78
2023/11/01 01:24:00;;;;;;;6.47;2.72;;;16.10;70.80;17.80;100104.00;;;;5015169;28;20189;-78
2023/11/01 01:26:27;;;;;;;6.75;2.72;;;16.10;70.80;17.80;100093.00;;;;5014176;28;20203;-78
2023/11/01 01:28:54;;;;;;;7.35;2.72;;;16.10;70.70;17.80;100092.00;;;;5011799;28;20220;-77
2023/11/01 01:31:21;;;;;;;6.05;2.60;;;16.10;70.70;17.70;100092.00;;;;5014296;28;20304;-78
2023/11/01 01:33:49;;;;;;;4.75;2.58;;;16.10;70.70;17.70;100089.00;;;;5013859;28;20259;-78
2023/11/01 01:36:16;;;;;;;3.22;1.95;;;16.10;70.70;17.70;100089.00;;;;5013069;28;20189;-78
2023/11/01 01:38:43;;;;;;;5.93;2.40;;;16.10;70.70;17.70;100091.00;;;;5013230;28;20200;-76
2023/11/01 01:41:11;;;;;;;3.88;2.83;;;16.10;70.60;17.60;100082.00;;;;5014469;28;20638;-78
2023/11/01 01:43:38;;;;;;;5.68;2.58;;;16.00;70.60;17.60;100084.00;;;;5014335;28;20197;-78
2023/11/01 01:46:10;;;;;;;5.70;2.15;;;16.00;70.60;17.60;100070.00;;;;5013789;28;20228;-78
2023/11/01 01:48:41;;;;;;;5.75;2.50;;;16.00;71.40;17.60;100067.00;;;;5014398;28;20224;-77
2023/11/01 01:51:12;;;;;;;7.20;2.13;;;16.00;70.70;17.60;100069.00;;;;5011344;28;20744;-78
2023/11/01 01:53:42;;;;;;;5.78;2.50;;;16.00;70.80;17.60;100060.00;;;;4996364;28;20647;-78
2023/11/01 01:56:12;;;;;;;4.70;1.92;;;16.00;70.80;17.60;100051.00;;;;5009810;28;20200;-78
2023/11/01 01:58:41;;;;;;;5.03;2.42;;;16.00;70.80;17.60;100047.00;;;;5011149;28;20676;-77
2023/11/01 02:01:10;;;;;;;4.13;2.22;;;16.00;70.80;17.60;100047.00;;;;5013028;28;20697;-78
2023/11/01 02:03:37;;;;;;;3.97;2.40;;;16.00;70.80;17.60;100044.00;;;;5011937;28;20193;-77
2023/11/01 02:06:07;;;;;;;8.18;2.78;;;16.00;70.80;17.60;100038.00;;;;5013369;28;20201;-78
2023/11/01 02:08:35;;;;;;;7.82;2.88;;;16.00;70.80;17.60;100039.00;;;;5012591;28;20248;-77
2023/11/01 02:11:03;;;;;;;3.38;2.28;;;16.00;70.90;17.60;100033.00;;;;5013475;28;20201;-79
2023/11/01 02:13:32;;;;;;;6.50;2.33;;;15.90;70.80;17.60;100030.00;;;;5013395;28;20651;-77
2023/11/01 02:16:00;;;;;;;4.30;2.10;;;15.90;70.80;17.60;100034.00;;;;5013190;28;20646;-77
2023/11/01 02:18:27;;;;;;;5.72;1.95;;;15.90;70.70;17.60;100026.00;;;;5013319;28;20201;-78
2023/11/01 02:20:54;;;;;;;3.80;1.77;;;15.90;70.70;17.50;100024.00;;;;5013968;28;20193;-77
2023/11/01 02:23:33;;;;;;;3.72;1.75;;;15.90;70.70;17.50;100025.00;;;;5012933;28;20287;-77
2023/11/01 02:26:00;;;;;;;6.10;2.28;;;15.90;70.80;17.60;100022.00;;;;4996752;28;20204;-77
2023/11/01 02:28:28;;;;;;;4.13;1.77;;;16.00;70.80;17.50;100016.00;;;;5012683;28;20193;-78
2023/11/01 02:30:55;;;;;;;4.05;1.75;;;15.90;70.80;17.50;100016.00;;;;5013074;28;20207;-78
2023/11/01 02:33:22;;;;;;;3.67;1.63;;;15.90;70.80;17.50;100009.00;;;;5013310;28;20279;-78
2023/11/01 02:35:49;;;;;;;4.38;1.80;;;16.00;70.90;17.60;100007.00;;;;5013072;28;20200;-78
2023/11/01 02:38:16;;;;;;;4.90;1.75;;;15.90;70.90;17.60;100002.00;;;;5013178;28;20199;-78
2023/11/01 02:40:45;;;;;;;2.17;1.30;;;15.90;70.90;17.60;100000.00;;;;5012869;28;20286;-78
2023/11/01 02:43:12;;;;;;;5.35;1.65;;;15.90;70.90;17.60;100001.00;;;;5009887;28;20213;-78
2023/11/01 02:45:39;;;;;;;6.05;1.95;;;15.90;71.00;17.60;99993.00;;;;5011409;28;20220;-78
2023/11/01 02:48:07;;;;;;;4.40;2.00;;;16.00;71.00;17.60;99991.00;;;;5011079;28;20189;-78
2023/11/01 02:50:34;;;;;;;3.50;1.52;;;15.90;70.90;17.60;99984.00;;;;5011745;28;20221;-78
2023/11/01 02:53:01;;;;;;;2.58;1.75;;;16.00;71.00;17.60;99975.00;;;;5011210;28;20201;-77
2023/11/01 02:55:29;;;;;;;3.15;1.38;;;16.00;71.00;17.60;99980.00;;;;5005378;28;20280;-78
2023/11/01 02:57:57;;;;;;;4.63;2.22;;;16.00;71.00;17.60;99968.00;;;;5008988;28;20670;-78
2023/11/01 03:00:24;;;;;;;2.83;1.17;;;16.00;71.00;17.70;99969.00;;;;5011740;28;20272;-78
2023/11/01 03:02:53;;;;;;;3.97;1.63;;;16.00;70.90;17.70;99965.00;;;;5008407;28;20210;-78
2023/11/01 03:05:21;;;;;;;3.10;1.52;;;16.00;70.90;17.70;99957.00;;;;5010785;28;20280;-78
2023/11/01 03:07:48;;;;;;;3.05;1.40;;;16.00;70.90;17.70;99960.00;;;;5012748;28;20200;-78
2023/11/01 03:10:15;;;;;;;3.78;1.35;;;16.00;70.90;17.70;99955.00;;;;5012381;28;20576;-78
2023/11/01 03:12:45;;;;;;;4.00;1.58;;;16.00;70.90;17.70;99950.00;;;;5009322;28;20196;-78
2023/11/01 03:15:14;;;;;;;1.95;1.38;;;16.00;70.90;17.70;99947.00;;;;5009439;28;20756;-78
2023/11/01 03:17:42;;;;;;;4.85;1.55;;;16.00;70.90;17.70;99942.00;;;;5008091;28;20199;-78
2023/11/01 03:20:11;;;;;;;2.20;1.38;;;16.00;70.90;17.70;99942.00;;;;5011111;28;20312;-77
2023/11/01 03:22:38;;;;;;;3.92;1.40;;;16.00;70.90;17.70;99940.00;;;;5010260;28;20601;-77
2023/11/01 03:25:07;;;;;;;3.75;1.52;;;16.00;70.90;17.70;99940.00;;;;5007951;28;20204;-79
2023/11/01 03:27:34;;;;;;;2.90;1.40;;;16.00;70.90;17.70;99937.00;;;;5011439;28;20729;-77
2023/11/01 03:30:01;;;;;;;3.90;1.50;;;16.00;71.00;17.70;99939.00;;;;5010836;28;20231;-78
2023/11/01 03:32:30;;;;;;;2.58;1.75;;;16.00;71.00;17.70;99940.00;;;;5010181;28;20212;-78
2023/11/01 03:34:57;;;;;;;2.38;1.60;;;16.10;71.10;17.70;99936.00;;;;5000304;28;20643;-78
2023/11/01 03:37:24;;;;;;;2.40;1.20;;;16.00;70.90;17.70;99938.00;;;;4998192;28;20284;-77
2023/11/01 03:39:51;;;;;;;2.05;1.48;;;16.10;71.00;17.70;99925.00;;;;5006629;28;20284;-78
2023/11/01 03:42:20;;;;;;;2.50;1.35;;;16.10;71.00;17.70;99929.00;;;;4994176;28;20217;-78
2023/11/01 03:44:48;;;;;;;3.42;1.60;;;16.10;71.00;17.70;99926.00;;;;5007259;28;20224;-78
2023/11/01 03:47:15;;;;;;;2.78;1.55;;;16.10;71.00;17.70;99922.00;;;;5010131;28;20605;-78
2023/11/01 03:49:44;;;;;;;3.58;1.52;;;16.10;71.00;17.70;99919.00;;;;5012113;28;20223;-77
2023/11/01 03:52:11;;;;;;;3.45;1.42;;;16.10;71.00;17.70;99920.00;;;;5009841;28;20196;-77
2023/11/01 03:54:38;;;;;;;4.20;1.67;;;16.10;70.90;17.70;99918.00;;;;5011971;28;20280;-78
2023/11/01 03:57:06;;;;;;;4.30;1.80;;;16.10;71.00;17.70;99915.00;;;;5009758;28;20192;-77
2023/11/01 03:59:33;;;;;;;4.35;1.60;;;16.10;71.00;17.70;99908.00;;;;5009756;28;20185;-77
2023/11/01 04:02:01;;;;;;;6.57;2.05;;;16.10;71.00;17.70;99904.00;;;;4998179;28;20200;-77
2023/11/01 04:04:28;;;;;;;3.05;1.80;;;16.10;71.00;17.80;99909.00;;;;5001083;28;20235;-77
2023/11/01 04:06:56;;;;;;;3.03;1.90;;;16.10;71.00;17.70;99911.00;;;;5012155;28;20209;-77
2023/11/01 04:09:24;;;;;;;5.57;2.10;;;16.10;71.10;17.80;99899.00;;;;5011253;28;20227;-78
2023/11/01 04:11:51;;;;;;;3.50;1.95;;;16.10;71.10;17.70;99902.00;;;;5012014;28;20197;-78
2023/11/01 04:14:18;;;;;;;2.90;1.77;;;16.10;71.10;17.80;99901.00;;;;5011948;28;20203;-78
2023/11/01 04:16:46;;;;;;;3.05;1.45;;;16.10;71.10;17.80;99895.00;;;;5009770;28;20292;-78
2023/11/01 04:19:14;;;;;;;2.53;1.77;;;16.10;71.10;17.80;99898.00;;;;5010801;28;20196;-78
2023/11/01 04:21:41;;;;;;;2.90;1.75;;;16.10;71.20;17.80;99898.00;;;;5011461;28;20205;-78
2023/11/01 04:24:10;;;;;;;3.65;1.60;;;16.10;71.20;17.80;99898.00;;;;5011146;28;20203;-78
2023/11/01 04:26:37;;;;;;;2.75;2.03;;;16.10;71.20;17.80;99897.00;;;;5011782;28;20279;-78
2023/11/01 04:29:05;;;;;;;2.42;1.58;;;16.10;71.20;17.80;99891.00;;;;5011605;28;20197;-78
2023/11/01 04:31:32;;;;;;;1.83;1.67;;;16.10;71.20;17.80;99890.00;;;;5011671;28;20212;-78
2023/11/01 04:33:59;;;;;;;2.92;1.48;;;16.20;71.30;17.80;99899.00;;;;5011531;28;20221;-78
2023/11/01 04:36:26;;;;;;;2.28;1.48;;;16.10;71.30;17.80;99890.00;;;;5011398;28;20658;-78
2023/11/01 04:38:55;;;;;;;2.00;1.80;;;16.10;72.00;17.80;99890.00;;;;5011233;28;20205;-77
2023/11/01 04:41:27;;;;;;;1.92;1.55;;;16.20;71.30;17.80;99887.00;;;;5011880;28;20197;-77
2023/11/01 04:43:54;;;;;;;3.00;1.60;;;16.10;71.20;17.80;99878.00;;;;5011633;28;20596;-77
2023/11/01 04:46:21;;;;;;;1.33;1.23;;;16.10;72.00;17.80;99876.00;;;;5011528;28;20331;-77
2023/11/01 04:48:49;;;;;;;1.95;1.40;;;16.10;71.30;17.80;99879.00;;;;5011385;28;20284;-77
2023/11/01 04:51:17;;;;;;;1.70;1.40;;;16.20;71.40;17.80;99876.00;;;;5015049;28;20221;-78
2023/11/01 04:53:44;;;;;;;1.85;1.38;;;16.20;71.40;17.80;99864.00;;;;5015252;28;20196;-78
2023/11/01 04:56:11;;;;;;;2.20;1.70;;;16.10;71.40;17.80;99867.00;;;;5014970;28;20291;-76
2023/11/01 04:58:39;;;;;;;3.58;1.20;;;16.20;71.50;17.80;99862.00;;;;5014238;28;20771;-77
2023/11/01 05:01:07;;;;;;;2.00;1.55;;;16.20;71.50;17.90;99859.00;;;;5014799;28;20635;-77
2023/11/01 05:03:36;;;;;;;3.67;1.92;;;16.20;71.50;17.80;99858.00;;;;5014634;28;20204;-77
2023/11/01 05:06:05;;;;;;;1.40;1.20;;;16.20;71.50;17.90;99863.00;;;;5014112;28;20196;-78
2023/11/01 05:08:32;;;;;;;1.65;1.45;;;16.20;71.50;17.90;99860.00;;;;5013038;28;20197;-78
2023/11/01 05:10:59;;;;;;;1.77;1.67;;;16.20;71.60;17.90;99862.00;;;;4995070;28;20217;-78
2023/11/01 05:13:26;;;;;;;1.85;1.58;;;16.20;71.60;17.90;99855.00;;;;5014150;28;20292;-78
2023/11/01 05:15:55;;;;;;;4.60;1.70;;;16.20;71.60;17.90;99847.00;;;;5014994;28;20195;-77
2023/11/01 05:18:24;;;;;;;3.90;1.90;;;16.20;71.70;17.90;99842.00;;;;5013472;28;20197;-77
2023/11/01 05:20:51;;;;;;;1.92;1.73;;;16.20;71.60;17.90;99842.00;;;;5010927;28;20208;-77
2023/11/01 05:23:18;;;;;;;2.60;2.00;;;16.30;71.70;17.90;99834.00;;;;5014670;28;20654;-78
2023/11/01 05:25:45;;;;;;;2.25;2.00;;;16.30;71.70;17.90;99843.00;;;;5015051;28;20220;-77
2023/11/01 05:28:12;;;;;;;3.15;2.13;;;16.30;71.80;18.00;99842.00;;;;5014943;28;20556;-77
2023/11/01 05:30:39;;;;;;;2.78;2.10;;;16.30;71.80;18.00;99831.00;;;;5013037;28;20216;-76
2023/11/01 05:33:08;;;;;;;3.45;2.85;;;16.30;71.80;18.00;99831.00;;;;5013929;28;20670;-78
2023/11/01 05:35:36;;;;;;;4.45;2.25;;;16.30;71.80;18.00;99823.00;;;;5013603;28;20243;-77
2023/11/01 05:38:04;;;;;;;5.35;2.35;;;16.30;71.80;18.00;99824.00;;;;5014111;28;20204;-77
2023/11/01 05:40:32;;;;;;;2.72;2.53;;;16.30;71.90;18.00;99824.00;;;;5014351;28;20481;-77
2023/11/01 05:42:59;;;;;;;2.92;2.60;;;16.40;72.00;18.00;99826.00;;;;5014559;28;20196;-77
2023/11/01 05:45:26;;;;;;;4.45;2.67;;;16.40;72.00;18.00;99821.00;;;;5013689;28;20239;-77
2023/11/01 05:47:54;;;;;;;3.97;2.88;;;16.40;72.10;18.00;99828.00;;;;5012336;28;20558;-78
2023/11/01 05:50:24;;;;;;;3.67;2.40;;;16.40;72.10;18.00;99823.00;;;;5012531;28;20255;-77
2023/11/01 05:52:52;;;;;;;3.05;2.45;;;16.40;72.10;18.10;99822.00;;;;5013619;28;20284;-77
2023/11/01 05:55:19;;;;;;;3.17;2.72;;;16.40;72.10;18.10;99818.00;;;;5013015;28;20224;-77
2023/11/01 05:57:50;;;;;;;5.15;3.17;;;16.40;72.10;18.10;99822.00;;;;5013448;28;20197;-78
2023/11/01 06:00:18;;;;;;;3.95;2.30;;;16.40;72.20;18.10;99824.00;;;;5012646;28;20196;-78
2023/11/01 06:02:46;;;;;;;5.93;3.45;;;16.50;72.20;18.10;99825.00;;;;5013465;28;20239;-77
2023/11/01 06:05:14;;;;;;;5.85;3.45;;;16.50;72.30;18.10;99825.00;;;;5012732;28;20284;-77
2023/11/01 06:07:43;;;;;;;3.63;2.97;;;16.50;72.30;18.10;99826.00;;;;5012577;28;20208;-78
2023/11/01 06:10:11;;;;;;;5.05;3.03;;;16.50;72.20;18.10;99824.00;;;;5012718;28;20577;-77
2023/11/01 06:12:38;;;;;;;3.13;2.65;;;16.50;72.30;18.10;99826.00;;;;5014452;28;20193;-77
2023/11/01 06:15:10;;;;;;;4.68;3.30;;;16.60;72.30;18.20;99819.00;;;;5009627;28;20220;-77
2023/11/01 06:17:37;;;;;;;4.55;2.95;;;16.60;72.40;18.20;99825.00;;;;5007993;28;20190;-77
2023/11/01 06:20:06;;;;;;;4.72;2.83;;;16.60;72.40;18.20;99829.00;;;;5010197;28;20200;-77
2023/11/01 06:22:33;;;;;;;3.13;2.70;;;16.60;72.40;18.20;99828.00;;;;5012738;28;20201;-77
2023/11/01 06:25:02;;;;;;;4.78;2.78;;;16.60;72.40;18.20;99824.00;;;;5011516;28;20212;-77
2023/11/01 06:27:29;;;;;;;3.30;2.60;;;16.60;72.40;18.20;99830.00;;;;5012186;28;20188;-78
2023/11/01 06:29:56;;;;;;;5.28;2.80;;;16.60;72.30;18.20;99821.00;;;;5012909;28;20220;-77
2023/11/01 06:32:23;;;;;;;3.10;2.28;;;16.70;72.30;18.30;99828.00;;;;5011634;28;20224;-78
2023/11/01 06:34:50;;;;;;;6.93;2.80;;;16.70;72.30;18.30;99823.00;;;;5012814;28;20708;-78
2023/11/01 06:37:17;;;;;;;3.45;2.10;;;16.70;72.30;18.30;99830.00;;;;5013293;28;20205;-78
2023/11/01 06:39:44;;;;;;;3.08;2.22;;;16.70;72.30;18.30;99835.00;;;;5011321;28;20227;-80
2023/11/01 06:42:13;;;;;;;5.25;2.00;;;16.70;72.40;18.30;99831.00;;;;5009406;28;20208;-77
2023/11/01 06:44:40;;;;;;;4.72;2.38;;;16.70;72.30;18.30;99841.00;;;;5008684;28;20642;-77
2023/11/01 06:47:07;;;;;;;3.97;1.85;;;16.70;72.30;18.30;99836.00;;;;5008491;28;20616;-78
2023/11/01 06:49:35;;;;;;;8.10;2.00;;;16.80;72.30;18.30;99835.00;;;;5009725;28;20646;-78
2023/11/01 06:52:02;;;;;;;3.78;1.60;;;16.80;72.30;18.30;99828.00;;;;5006258;28;20201;-77
2023/11/01 06:56:54;;;;;;;3.50;1.75;;;16.80;72.20;18.40;99834.00;;;;5036944;22;20246;-76
2023/11/01 06:59:23;;;;;;;3.55;1.27;;;16.80;72.20;18.40;99830.00;;;;5027490;28;20555;-80
2023/11/01 07:01:51;;;;;;;8.73;2.20;;;16.80;72.20;18.40;99833.00;;;;5022549;28;20216;-79
2023/11/01 07:04:18;;;;;;;3.70;1.52;;;16.80;72.20;18.40;99838.00;;;;5029409;28;20250;-80
2023/11/01 07:06:45;;;;;;;4.47;1.45;;;16.80;72.20;18.40;99845.00;;;;5025016;28;20188;-79
2023/11/01 07:09:13;;;;;;;7.45;2.05;;;16.80;72.10;18.40;99837.00;;;;5027939;28;20204;-80
2023/11/01 07:11:40;;;;;;;5.32;1.38;;;16.80;72.10;18.40;99841.00;;;;5009480;28;20231;-79
2023/11/01 07:14:09;;;;;;;2.45;1.65;;;16.80;72.10;18.40;99833.00;;;;5013178;28;20192;-78
2023/11/01 07:16:39;;;;;;;5.50;1.80;;;16.80;72.10;18.40;99839.00;;;;5027342;28;20283;-80
2023/11/01 07:19:06;;;;;;;5.05;1.23;;;16.80;72.10;18.50;99835.00;;;;5028450;28;20206;-79
2023/11/01 07:21:34;;;;;;;5.82;1.45;;;16.90;72.10;18.50;99833.00;;;;5028334;28;20674;-79
2023/11/01 07:24:01;;;;;;;3.55;1.23;;;16.90;72.10;18.50;99833.00;;;;5029162;28;20204;-80
2023/11/01 07:26:28;;;;;;;5.00;1.30;;;16.90;72.10;18.50;99827.00;;;;5009675;28;20205;-80
2023/11/01 07:28:55;;;;;;;5.40;1.90;;;16.90;72.10;18.50;99836.00;;;;5025580;28;20204;-80
2023/11/01 07:31:23;;;;;;;6.53;2.13;;;16.90;72.00;18.50;99833.00;;;;5029744;28;20220;-80
2023/11/01 07:33:51;;;;;;;6.93;1.33;;;16.90;72.00;18.50;99823.00;;;;5026629;28;20659;-80
2023/11/01 07:36:19;;;;;;;4.10;1.58;;;16.90;72.00;18.50;99822.00;;;;5022164;28;20199;-80
2023/11/01 07:38:47;;;;;;;6.35;1.73;;;16.90;72.00;18.50;99823.00;;;;5029438;28;20686;-79
2023/11/01 07:41:15;;;;;;;4.05;1.42;;;16.90;72.00;18.50;99824.00;;;;5029646;28;20287;-80
2023/11/01 07:43:43;;;;;;;11.88;1.60;;;16.90;72.00;18.60;99812.00;;;;5029001;28;20203;-79
2023/11/01 07:46:11;;;;;;;2.42;1.20;;;17.00;72.10;18.60;99823.00;;;;5024245;28;20212;-79
2023/11/01 07:48:38;;;;;;;5.25;1.23;;;17.00;72.00;18.60;99819.00;;;;5024250;28;21135;-79
2023/11/01 07:51:08;;;;;;;6.72;1.00;;;17.00;71.90;18.60;99820.00;;;;5027677;28;20231;-79
2023/11/01 07:53:36;;;;;;;4.95;1.50;;;17.00;72.00;18.60;99831.00;;;;5028513;28;20204;-79
2023/11/01 07:56:03;;;;;;;7.25;1.38;;;17.00;72.00;18.60;99824.00;;;;5028904;28;20243;-79
2023/11/01 07:58:31;;;;;;;4.22;1.48;;;17.00;72.00;18.70;99830.00;;;;5026769;28;20204;-80
2023/11/01 08:00:59;;;;;;;7.18;1.30;;;17.10;72.10;18.70;99833.00;;;;5027157;28;20212;-80
2023/11/01 08:03:26;;;;;;;3.53;0.90;;;17.10;72.00;18.70;99829.00;;;;5027257;28;20273;-80
2023/11/01 08:05:53;;;;;;;5.05;1.55;;;17.10;72.00;18.70;99828.00;;;;5027507;28;20398;-80
2023/11/01 08:08:21;;;;;;;4.65;1.30;;;17.10;72.00;18.70;99818.00;;;;5027884;28;20228;-80
2023/11/01 08:10:48;;;;;;;7.43;1.33;;;17.10;71.90;18.70;99825.00;;;;5024989;28;20237;-80
2023/11/01 08:13:16;;;;;;;3.92;1.23;;;17.10;71.90;18.80;99832.00;;;;5025196;28;20285;-79
2023/11/01 08:15:43;;;;;;;6.43;1.35;;;17.20;71.90;18.80;99825.00;;;;5024268;28;20216;-79
2023/11/01 08:18:10;;;;;;;2.83;1.10;;;17.20;71.90;18.80;99822.00;;;;5025052;28;20662;-79
2023/11/01 08:20:37;;;;;;;3.47;1.40;;;17.20;71.90;18.80;99809.00;;;;5027505;28;20196;-79
2023/11/01 08:23:04;;;;;;;6.07;1.45;;;17.20;71.90;18.80;99818.00;;;;5029486;28;20208;-79
2023/11/01 08:25:33;;;;;;;4.30;1.55;;;17.20;71.80;18.80;99808.00;;;;5032923;28;20203;-80
2023/11/01 08:28:00;;;;;;;6.82;1.30;;;17.20;71.80;18.80;99807.00;;;;5034265;28;20211;-81
2023/11/01 08:30:27;;;;;;;3.65;1.27;;;17.30;71.80;18.80;99806.00;;;;5033429;28;20203;-79
2023/11/01 08:32:54;;;;;;;4.93;1.35;;;17.30;71.80;18.90;99810.00;;;;5034264;28;20204;-80
2023/11/01 08:35:21;;;;;;;5.25;1.10;;;17.30;71.80;18.90;99806.00;;;;5042275;28;20228;-80
2023/11/01 08:37:48;;;;;;;4.35;1.38;;;17.30;71.80;18.90;99812.00;;;;5039078;28;20204;-80
2023/11/01 08:40:15;;;;;;;3.85;1.17;;;17.30;71.70;18.90;99807.00;;;;5034911;28;20588;-80
2023/11/01 08:42:43;;;;;;;5.38;1.05;;;17.30;71.60;18.90;99805.00;;;;5036011;28;20208;-79
2023/11/01 08:45:11;;;;;;;4.35;1.40;;;17.30;71.50;18.90;99801.00;;;;5033755;28;20204;-79
2023/11/01 08:47:40;;;;;;;4.68;1.27;;;17.30;71.50;18.90;99809.00;;;;5034277;28;20306;-80
2023/11/01 08:50:11;;;;;;;6.93;1.63;;;17.30;71.40;18.90;99812.00;;;;5034873;28;20203;-79
2023/11/01 08:52:40;;;;;;;4.28;1.45;;;17.40;71.50;18.90;99803.00;;;;5036456;28;20240;-80
2023/11/01 08:55:08;;;;;;;5.32;1.75;;;17.40;71.50;18.90;99809.00;;;;5035502;28;20239;-79
2023/11/01 08:57:35;;;;;;;2.25;1.02;;;17.40;71.50;18.90;99806.00;;;;5036734;28;20254;-80
2023/11/01 09:00:05;;;;;;;3.28;1.20;;;17.30;71.40;18.90;99800.00;;;;5037233;28;20208;-79
2023/11/01 09:02:32;;;;;;;5.15;1.35;;;17.40;71.50;19.00;99796.00;;;;5036331;28;20220;-79
2023/11/01 09:05:00;;;;;;;4.57;1.52;;;17.40;71.50;19.00;99801.00;;;;5039702;28;20200;-80
2023/11/01 09:07:27;;;;;;;6.70;1.25;;;17.40;71.40;19.10;99797.00;;;;5042171;28;20200;-80
2023/11/01 09:09:55;;;;;;;4.78;1.23;;;17.40;71.50;19.10;99800.00;;;;5040130;28;20207;-81
2023/11/01 09:12:22;;;;;;;4.18;1.00;;;17.50;71.60;19.10;99795.00;;;;5039077;28;20231;-80
2023/11/01 09:14:50;;;;;;;2.97;1.00;;;17.50;71.60;19.10;99791.00;;;;5040828;28;20202;-81
2023/11/01 09:17:18;;;;;;;2.78;0.88;;;17.50;71.60;19.10;99787.00;;;;5035671;28;20211;-81
2023/11/01 09:19:45;;;;;;;6.40;1.13;;;17.50;71.50;19.20;99785.00;;;;5042310;28;20208;-81
2023/11/01 09:22:13;;;;;;;10.27;1.15;;;17.50;71.40;19.20;99781.00;;;;5042064;28;20216;-81
2023/11/01 09:24:40;;;;;;;4.82;0.95;;;17.60;71.40;19.20;99778.00;;;;5036006;28;20298;-81
2023/11/01 09:27:07;;;;;;;5.50;1.13;;;17.60;71.40;19.20;99769.00;;;;5034875;28;20576;-80
2023/11/01 09:29:34;;;;;;;6.05;1.60;;;17.60;71.40;19.30;99765.00;;;;5034845;28;20616;-80
2023/11/01 09:32:01;;;;;;;5.55;1.33;;;17.60;71.30;19.30;99768.00;;;;5037065;28;20318;-80
2023/11/01 09:34:30;;;;;;;3.50;0.82;;;17.70;71.20;19.30;99771.00;;;;5041014;28;20204;-81
2023/11/01 09:36:57;;;;;;;3.55;1.08;;;17.70;71.90;19.30;99764.00;;;;5037112;28;20200;-80
2023/11/01 09:39:24;;;;;;;5.85;1.30;;;17.70;71.10;19.30;99766.00;;;;5034415;28;20196;-80
2023/11/01 09:42:00;;;;;;;4.93;1.30;;;17.70;70.90;19.30;99766.00;;;;5036156;28;20265;-80
2023/11/01 09:44:30;;;;;;;2.60;1.08;;;17.80;71.00;19.30;99762.00;;;;5038655;28;20200;-80
2023/11/01 09:46:58;;;;;;;3.55;0.95;;;17.80;70.90;19.30;99762.00;;;;5036788;28;20211;-79
2023/11/01 09:49:25;;;;;;;4.30;0.90;;;17.80;70.80;19.40;99763.00;;;;5041589;28;20208;-80
2023/11/01 09:51:55;;;;;;;5.25;0.90;;;17.70;70.80;19.40;99758.00;;;;5045102;28;20228;-80
2023/11/01 09:54:22;;;;;;;3.83;1.13;;;17.80;70.80;19.40;99763.00;;;;5040568;28;20203;-81
2023/11/01 09:56:50;;;;;;;5.75;1.27;;;17.80;70.80;19.40;99763.00;;;;5039933;28;20238;-80
2023/11/01 09:59:17;;;;;;;4.68;1.08;;;17.90;70.80;19.50;99757.00;;;;5038402;28;20200;-80
2023/11/01 10:01:45;;;;;;;3.55;0.95;;;17.90;70.70;19.50;99751.00;;;;5050574;28;20486;-81
2023/11/01 10:04:13;;;;;;;4.35;0.93;;;17.90;70.90;19.50;99751.00;;;;5049499;28;20200;-81
2023/11/01 10:06:43;;;;;;;1.77;0.80;;;17.90;70.90;19.60;99747.00;;;;5047833;28;20208;-81
2023/11/01 10:09:12;;;;;;;4.05;0.80;;;18.00;70.80;19.60;99744.00;;;;5043810;28;20665;-80
2023/11/01 10:11:39;;;;;;;5.40;1.38;;;18.00;70.80;19.60;99740.00;;;;5042920;28;20236;-80
2023/11/01 10:14:07;;;;;;;17.02;2.10;;;18.00;70.70;19.70;99735.00;;;;5046434;28;20203;-80
2023/11/01 10:16:34;;;;;;;5.00;0.80;;;18.10;70.60;19.70;99732.00;;;;5038594;28;20199;-81
2023/11/01 10:19:01;;;;;;;4.95;1.10;;;18.10;70.50;19.70;99729.00;;;;5041167;28;20585;-81
2023/11/01 10:21:28;;;;;;;4.57;1.00;;;18.10;70.50;19.80;99725.00;;;;5039160;28;20204;-81
2023/11/01 10:23:57;;;;;;;2.42;0.70;;;18.20;70.50;19.80;99724.00;;;;5037863;28;20246;-81
2023/11/01 10:26:28;;;;;;;3.10;0.70;;;18.20;70.30;19.80;99722.00;;;;5041587;28;20569;-81
2023/11/01 10:28:55;;;;;;;4.18;1.05;;;18.20;70.20;19.80;99723.00;;;;5035663;28;20730;-80
2023/11/01 10:31:22;;;;;;;3.92;1.02;;;18.20;70.20;19.80;99728.00;;;;5039411;28;20220;-80
2023/11/01 10:33:49;;;;;;;2.10;0.70;;;18.30;69.90;19.80;99732.00;;;;5037772;28;20203;-81
2023/11/01 10:36:17;;;;;;;8.48;1.30;;;18.30;69.80;19.90;99733.00;;;;5038105;28;20196;-81
2023/11/01 10:38:46;;;;;;;2.70;0.85;;;18.30;69.80;19.90;99724.00;;;;5038613;28;20200;-80
2023/11/01 10:41:13;;;;;;;7.07;1.38;;;18.30;69.70;19.90;99719.00;;;;5036514;28;20682;-80
2023/11/01 10:43:41;;;;;;;5.25;1.30;;;18.30;69.80;19.90;99716.00;;;;5035951;28;20215;-79
2023/11/01 10:46:09;;;;;;;9.27;1.20;;;18.30;69.60;19.90;99712.00;;;;5034302;28;20203;-80
2023/11/01 10:48:37;;;;;;;3.28;0.85;;;18.30;69.60;19.90;99706.00;;;;5030565;28;20200;-79
2023/11/01 10:51:07;;;;;;;2.88;0.55;;;18.40;69.60;20.00;99705.00;;;;5031448;28;20200;-80
2023/11/01 10:53:33;;;;;;;3.85;0.80;;;18.40;69.60;20.00;99701.00;;;;5013912;28;20201;-81
2023/11/01 10:56:04;;;;;;;2.53;0.60;;;18.40;69.60;20.00;99698.00;;;;5024945;28;20286;-80